Kemmerer, Wyoming
Current Conditions -  °F | °C
As of 6:55 AM on Monday 24 Nov 2014 (Local Time) from KEMM Reporting Station
Light Snow Light Snow  
Wind Chill:   Ceiling: 1800
Heat Index: 23°   Visibility: 2.5mi
Dew Point: 21°   Wind: 24mph
Humidity: 93%   Direction: 270°W
Pressure: 30.07"   Gusts: NA
Location:  41.79°N, 110.54°W
Report Text: KEMM 241355Z AUTO 27021KT 2 1/2SM -SN SCT010 BKN018 OVC029 M05/M06 A3007 RMK AO2
Loading
Personal Weather Stations






























Interactive Weather Map New forecast layout! Learn more

10-Day Weather Forecast

Advertisements
Track Severe Weather on mobile